sensor_id;sensor_type;location;lat;lon;timestamp;P1;durP1;ratioP1;P2;durP2;ratioP2
75007;SDS011;63554;48.940;12.050;2023-05-10T00:00:14;2.35;;;1.75;;
75007;SDS011;63554;48.940;12.050;2023-05-10T00:04:18;3.20;;;1.63;;
75007;SDS011;63554;48.940;12.050;2023-05-10T00:08:20;1.90;;;1.40;;
75007;SDS011;63554;48.940;12.050;2023-05-10T00:12:23;2.33;;;1.60;;
75007;SDS011;63554;48.940;12.050;2023-05-10T00:16:27;2.35;;;1.55;;
75007;SDS011;63554;48.940;12.050;2023-05-10T00:20:30;2.92;;;1.52;;
75007;SDS011;63554;48.940;12.050;2023-05-10T00:24:32;4.43;;;1.92;;
75007;SDS011;63554;48.940;12.050;2023-05-10T00:28:35;2.33;;;1.40;;
75007;SDS011;63554;48.940;12.050;2023-05-10T00:32:39;2.47;;;2.15;;
75007;SDS011;63554;48.940;12.050;2023-05-10T00:36:41;1.92;;;1.63;;
75007;SDS011;63554;48.940;12.050;2023-05-10T00:40:44;2.70;;;1.90;;
75007;SDS011;63554;48.940;12.050;2023-05-10T00:44:47;2.15;;;1.65;;
75007;SDS011;63554;48.940;12.050;2023-05-10T00:48:51;2.78;;;1.80;;
75007;SDS011;63554;48.940;12.050;2023-05-10T00:52:54;2.88;;;1.75;;
75007;SDS011;63554;48.940;12.050;2023-05-10T00:56:57;3.55;;;2.10;;
75007;SDS011;63554;48.940;12.050;2023-05-10T01:00:59;3.38;;;1.98;;
75007;SDS011;63554;48.940;12.050;2023-05-10T01:05:05;5.63;;;1.52;;
75007;SDS011;63554;48.940;12.050;2023-05-10T01:09:09;3.10;;;1.58;;
75007;SDS011;63554;48.940;12.050;2023-05-10T01:13:12;3.10;;;2.08;;
75007;SDS011;63554;48.940;12.050;2023-05-10T01:17:20;2.83;;;2.10;;
75007;SDS011;63554;48.940;12.050;2023-05-10T01:21:27;2.40;;;2.00;;
75007;SDS011;63554;48.940;12.050;2023-05-10T01:25:43;4.18;;;2.00;;
75007;SDS011;63554;48.940;12.050;2023-05-10T01:30:35;2.58;;;1.73;;
75007;SDS011;63554;48.940;12.050;2023-05-10T01:34:57;4.45;;;1.95;;
75007;SDS011;63554;48.940;12.050;2023-05-10T01:39:05;3.58;;;2.10;;
75007;SDS011;63554;48.940;12.050;2023-05-10T01:43:15;2.47;;;1.80;;
75007;SDS011;63554;48.940;12.050;2023-05-10T01:47:25;3.92;;;1.60;;
75007;SDS011;63554;48.940;12.050;2023-05-10T01:51:37;3.22;;;2.53;;
75007;SDS011;63554;48.940;12.050;2023-05-10T01:55:44;3.95;;;1.70;;
75007;SDS011;63554;48.940;12.050;2023-05-10T01:59:49;3.55;;;2.40;;
75007;SDS011;63554;48.940;12.050;2023-05-10T02:03:53;3.47;;;2.25;;
75007;SDS011;63554;48.940;12.050;2023-05-10T02:07:59;3.03;;;1.95;;
75007;SDS011;63554;48.940;12.050;2023-05-10T02:16:07;3.30;;;1.75;;
75007;SDS011;63554;48.940;12.050;2023-05-10T02:20:11;3.50;;;1.90;;
75007;SDS011;63554;48.940;12.050;2023-05-10T02:24:15;2.75;;;1.88;;
75007;SDS011;63554;48.940;12.050;2023-05-10T02:28:19;2.97;;;2.00;;
75007;SDS011;63554;48.940;12.050;2023-05-10T02:32:24;2.42;;;2.08;;
75007;SDS011;63554;48.940;12.050;2023-05-10T02:36:28;5.80;;;2.40;;
75007;SDS011;63554;48.940;12.050;2023-05-10T02:40:34;3.60;;;2.20;;
75007;SDS011;63554;48.940;12.050;2023-05-10T02:44:39;3.15;;;2.40;;
75007;SDS011;63554;48.940;12.050;2023-05-10T02:48:43;4.40;;;2.30;;
75007;SDS011;63554;48.940;12.050;2023-05-10T02:52:47;3.05;;;2.00;;
75007;SDS011;63554;48.940;12.050;2023-05-10T02:56:56;8.05;;;2.30;;
75007;SDS011;63554;48.940;12.050;2023-05-10T03:01:00;4.15;;;2.50;;
75007;SDS011;63554;48.940;12.050;2023-05-10T03:05:03;2.78;;;2.08;;
75007;SDS011;63554;48.940;12.050;2023-05-10T03:09:06;4.10;;;2.35;;
75007;SDS011;63554;48.940;12.050;2023-05-10T03:13:12;5.13;;;2.95;;
75007;SDS011;63554;48.940;12.050;2023-05-10T03:17:23;3.88;;;2.35;;
75007;SDS011;63554;48.940;12.050;2023-05-10T03:21:38;4.18;;;2.13;;
75007;SDS011;63554;48.940;12.050;2023-05-10T03:25:47;2.70;;;2.08;;
75007;SDS011;63554;48.940;12.050;2023-05-10T03:29:52;5.75;;;2.30;;
75007;SDS011;63554;48.940;12.050;2023-05-10T03:33:57;3.55;;;2.22;;
75007;SDS011;63554;48.940;12.050;2023-05-10T03:37:59;3.42;;;2.45;;
75007;SDS011;63554;48.940;12.050;2023-05-10T03:42:02;3.35;;;2.30;;
75007;SDS011;63554;48.940;12.050;2023-05-10T03:46:06;4.47;;;2.88;;
75007;SDS011;63554;48.940;12.050;2023-05-10T03:50:09;3.40;;;2.33;;
75007;SDS011;63554;48.940;12.050;2023-05-10T03:54:12;3.88;;;2.78;;
75007;SDS011;63554;48.940;12.050;2023-05-10T03:58:15;3.50;;;2.28;;
75007;SDS011;63554;48.940;12.050;2023-05-10T04:02:19;4.18;;;2.60;;
75007;SDS011;63554;48.940;12.050;2023-05-10T04:06:21;3.33;;;2.35;;
75007;SDS011;63554;48.940;12.050;2023-05-10T04:10:24;4.53;;;2.15;;
75007;SDS011;63554;48.940;12.050;2023-05-10T04:14:27;8.00;;;2.28;;
75007;SDS011;63554;48.940;12.050;2023-05-10T04:18:31;4.03;;;2.60;;
75007;SDS011;63554;48.940;12.050;2023-05-10T04:22:34;4.32;;;2.45;;
75007;SDS011;63554;48.940;12.050;2023-05-10T04:26:36;4.53;;;2.55;;
75007;SDS011;63554;48.940;12.050;2023-05-10T04:30:39;5.70;;;2.90;;
75007;SDS011;63554;48.940;12.050;2023-05-10T04:34:44;7.00;;;3.30;;
75007;SDS011;63554;48.940;12.050;2023-05-10T04:38:46;4.63;;;2.53;;
75007;SDS011;63554;48.940;12.050;2023-05-10T04:42:49;4.97;;;2.85;;
75007;SDS011;63554;48.940;12.050;2023-05-10T04:46:52;4.25;;;2.58;;
75007;SDS011;63554;48.940;12.050;2023-05-10T04:50:56;6.75;;;3.20;;
75007;SDS011;63554;48.940;12.050;2023-05-10T04:54:58;6.13;;;2.83;;
75007;SDS011;63554;48.940;12.050;2023-05-10T04:59:01;4.38;;;2.88;;
75007;SDS011;63554;48.940;12.050;2023-05-10T05:03:04;5.07;;;3.20;;
75007;SDS011;63554;48.940;12.050;2023-05-10T05:07:08;7.07;;;3.20;;
75007;SDS011;63554;48.940;12.050;2023-05-10T05:11:12;4.43;;;2.90;;
75007;SDS011;63554;48.940;12.050;2023-05-10T05:15:14;7.75;;;2.78;;
75007;SDS011;63554;48.940;12.050;2023-05-10T05:19:18;6.25;;;3.05;;
75007;SDS011;63554;48.940;12.050;2023-05-10T05:23:22;4.70;;;3.17;;
75007;SDS011;63554;48.940;12.050;2023-05-10T05:27:26;5.80;;;3.25;;
75007;SDS011;63554;48.940;12.050;2023-05-10T05:31:29;4.53;;;3.20;;
75007;SDS011;63554;48.940;12.050;2023-05-10T05:35:32;5.07;;;2.72;;
75007;SDS011;63554;48.940;12.050;2023-05-10T05:39:36;5.40;;;2.97;;
75007;SDS011;63554;48.940;12.050;2023-05-10T05:43:39;4.65;;;2.97;;
75007;SDS011;63554;48.940;12.050;2023-05-10T05:47:42;5.80;;;3.05;;
75007;SDS011;63554;48.940;12.050;2023-05-10T05:51:45;4.93;;;3.38;;
75007;SDS011;63554;48.940;12.050;2023-05-10T05:55:53;6.82;;;3.20;;
75007;SDS011;63554;48.940;12.050;2023-05-10T05:59:56;6.93;;;3.40;;
75007;SDS011;63554;48.940;12.050;2023-05-10T06:03:59;8.23;;;2.85;;
75007;SDS011;63554;48.940;12.050;2023-05-10T06:08:02;5.25;;;3.20;;
75007;SDS011;63554;48.940;12.050;2023-05-10T06:12:06;6.38;;;3.30;;
75007;SDS011;63554;48.940;12.050;2023-05-10T06:16:10;6.32;;;4.10;;
75007;SDS011;63554;48.940;12.050;2023-05-10T06:20:13;4.70;;;3.00;;
75007;SDS011;63554;48.940;12.050;2023-05-10T06:24:16;4.38;;;2.83;;
75007;SDS011;63554;48.940;12.050;2023-05-10T06:28:20;6.53;;;2.67;;
75007;SDS011;63554;48.940;12.050;2023-05-10T06:32:22;8.13;;;3.50;;
75007;SDS011;63554;48.940;12.050;2023-05-10T06:36:25;4.70;;;3.13;;
75007;SDS011;63554;48.940;12.050;2023-05-10T06:40:29;6.57;;;3.00;;
75007;SDS011;63554;48.940;12.050;2023-05-10T06:44:35;5.78;;;2.95;;
75007;SDS011;63554;48.940;12.050;2023-05-10T06:48:38;4.85;;;2.42;;
75007;SDS011;63554;48.940;12.050;2023-05-10T06:52:40;4.18;;;2.88;;
75007;SDS011;63554;48.940;12.050;2023-05-10T06:56:44;7.90;;;2.97;;
75007;SDS011;63554;48.940;12.050;2023-05-10T07:00:48;4.07;;;2.53;;
75007;SDS011;63554;48.940;12.050;2023-05-10T07:04:51;4.72;;;2.70;;
75007;SDS011;63554;48.940;12.050;2023-05-10T07:08:54;5.88;;;3.00;;
75007;SDS011;63554;48.940;12.050;2023-05-10T07:12:57;9.30;;;3.75;;
75007;SDS011;63554;48.940;12.050;2023-05-10T07:17:01;3.95;;;2.10;;
75007;SDS011;63554;48.940;12.050;2023-05-10T07:21:03;2.30;;;1.55;;
75007;SDS011;63554;48.940;12.050;2023-05-10T07:25:06;4.53;;;1.92;;
75007;SDS011;63554;48.940;12.050;2023-05-10T07:29:09;2.33;;;1.60;;
75007;SDS011;63554;48.940;12.050;2023-05-10T07:33:13;2.30;;;1.50;;
75007;SDS011;63554;48.940;12.050;2023-05-10T07:37:17;1.92;;;1.40;;
75007;SDS011;63554;48.940;12.050;2023-05-10T07:41:20;2.45;;;1.27;;
75007;SDS011;63554;48.940;12.050;2023-05-10T07:45:23;1.58;;;0.85;;
75007;SDS011;63554;48.940;12.050;2023-05-10T07:49:27;2.25;;;0.90;;
75007;SDS011;63554;48.940;12.050;2023-05-10T07:53:30;0.95;;;0.43;;
75007;SDS011;63554;48.940;12.050;2023-05-10T07:57:32;0.52;;;0.40;;
75007;SDS011;63554;48.940;12.050;2023-05-10T08:01:36;0.50;;;0.40;;
75007;SDS011;63554;48.940;12.050;2023-05-10T08:05:40;0.75;;;0.30;;
75007;SDS011;63554;48.940;12.050;2023-05-10T08:09:43;0.38;;;0.30;;
75007;SDS011;63554;48.940;12.050;2023-05-10T08:13:45;0.30;;;0.20;;
75007;SDS011;63554;48.940;12.050;2023-05-10T08:17:48;0.40;;;0.30;;
75007;SDS011;63554;48.940;12.050;2023-05-10T08:21:52;0.30;;;0.30;;
75007;SDS011;63554;48.940;12.050;2023-05-10T08:25:56;0.65;;;0.40;;
75007;SDS011;63554;48.940;12.050;2023-05-10T08:30:00;0.80;;;0.70;;
75007;SDS011;63554;48.940;12.050;2023-05-10T08:34:02;0.60;;;0.40;;
75007;SDS011;63554;48.940;12.050;2023-05-10T08:38:06;0.45;;;0.45;;
75007;SDS011;63554;48.940;12.050;2023-05-10T08:42:09;0.47;;;0.32;;
75007;SDS011;63554;48.940;12.050;2023-05-10T08:46:12;0.47;;;0.32;;
75007;SDS011;63554;48.940;12.050;2023-05-10T08:50:18;0.85;;;0.40;;
75007;SDS011;63554;48.940;12.050;2023-05-10T08:54:24;0.40;;;0.30;;
75007;SDS011;63554;48.940;12.050;2023-05-10T08:58:27;0.60;;;0.40;;
75007;SDS011;63554;48.940;12.050;2023-05-10T09:02:31;0.60;;;0.40;;
75007;SDS011;63554;48.940;12.050;2023-05-10T09:06:34;0.60;;;0.50;;
75007;SDS011;63554;48.940;12.050;2023-05-10T09:10:42;1.38;;;0.60;;
75007;SDS011;63554;48.940;12.050;2023-05-10T09:14:46;0.40;;;0.40;;
75007;SDS011;63554;48.940;12.050;2023-05-10T09:18:48;0.60;;;0.50;;
75007;SDS011;63554;48.940;12.050;2023-05-10T09:22:52;0.50;;;0.40;;
75007;SDS011;63554;48.940;12.050;2023-05-10T09:26:56;0.50;;;0.30;;
75007;SDS011;63554;48.940;12.050;2023-05-10T09:31:01;0.70;;;0.47;;
75007;SDS011;63554;48.940;12.050;2023-05-10T09:35:07;0.40;;;0.40;;
75007;SDS011;63554;48.940;12.050;2023-05-10T09:39:12;0.70;;;0.50;;
75007;SDS011;63554;48.940;12.050;2023-05-10T09:43:16;0.50;;;0.40;;
75007;SDS011;63554;48.940;12.050;2023-05-10T09:47:19;0.55;;;0.50;;
75007;SDS011;63554;48.940;12.050;2023-05-10T09:51:23;2.00;;;1.00;;
75007;SDS011;63554;48.940;12.050;2023-05-10T09:55:37;0.55;;;0.40;;
75007;SDS011;63554;48.940;12.050;2023-05-10T09:59:43;0.60;;;0.43;;
75007;SDS011;63554;48.940;12.050;2023-05-10T10:03:46;0.73;;;0.60;;
75007;SDS011;63554;48.940;12.050;2023-05-10T10:07:49;0.40;;;0.40;;
75007;SDS011;63554;48.940;12.050;2023-05-10T10:11:51;0.60;;;0.50;;
75007;SDS011;63554;48.940;12.050;2023-05-10T10:15:55;0.63;;;0.63;;
75007;SDS011;63554;48.940;12.050;2023-05-10T10:19:58;0.60;;;0.45;;
75007;SDS011;63554;48.940;12.050;2023-05-10T10:24:01;0.55;;;0.40;;
75007;SDS011;63554;48.940;12.050;2023-05-10T10:28:09;3.13;;;0.38;;
75007;SDS011;63554;48.940;12.050;2023-05-10T10:32:22;0.40;;;0.40;;
75007;SDS011;63554;48.940;12.050;2023-05-10T10:36:31;0.70;;;0.43;;
75007;SDS011;63554;48.940;12.050;2023-05-10T10:40:35;0.63;;;0.40;;
75007;SDS011;63554;48.940;12.050;2023-05-10T10:44:38;1.08;;;0.55;;
75007;SDS011;63554;48.940;12.050;2023-05-10T10:48:48;0.55;;;0.38;;
75007;SDS011;63554;48.940;12.050;2023-05-10T10:52:52;0.50;;;0.40;;
75007;SDS011;63554;48.940;12.050;2023-05-10T10:57:11;1.10;;;0.50;;
75007;SDS011;63554;48.940;12.050;2023-05-10T11:01:15;0.95;;;0.40;;
75007;SDS011;63554;48.940;12.050;2023-05-10T11:05:33;0.35;;;0.30;;
75007;SDS011;63554;48.940;12.050;2023-05-10T11:09:40;0.30;;;0.30;;
75007;SDS011;63554;48.940;12.050;2023-05-10T11:13:44;1.75;;;0.43;;
75007;SDS011;63554;48.940;12.050;2023-05-10T11:17:51;0.40;;;0.30;;
75007;SDS011;63554;48.940;12.050;2023-05-10T11:26:15;0.40;;;0.30;;
75007;SDS011;63554;48.940;12.050;2023-05-10T11:30:19;0.22;;;0.20;;
75007;SDS011;63554;48.940;12.050;2023-05-10T11:34:25;0.73;;;0.38;;
75007;SDS011;63554;48.940;12.050;2023-05-10T11:38:30;1.00;;;0.40;;
75007;SDS011;63554;48.940;12.050;2023-05-10T11:42:35;0.60;;;0.40;;
75007;SDS011;63554;48.940;12.050;2023-05-10T11:46:39;0.45;;;0.40;;
75007;SDS011;63554;48.940;12.050;2023-05-10T11:50:43;0.40;;;0.30;;
75007;SDS011;63554;48.940;12.050;2023-05-10T11:54:52;0.65;;;0.22;;
75007;SDS011;63554;48.940;12.050;2023-05-10T11:58:55;0.40;;;0.30;;
75007;SDS011;63554;48.940;12.050;2023-05-10T12:03:00;0.80;;;0.43;;
75007;SDS011;63554;48.940;12.050;2023-05-10T12:07:03;1.63;;;0.45;;
75007;SDS011;63554;48.940;12.050;2023-05-10T12:11:10;0.20;;;0.20;;
75007;SDS011;63554;48.940;12.050;2023-05-10T12:15:17;0.82;;;0.30;;
75007;SDS011;63554;48.940;12.050;2023-05-10T12:19:22;1.27;;;0.40;;
75007;SDS011;63554;48.940;12.050;2023-05-10T12:23:24;0.32;;;0.32;;
75007;SDS011;63554;48.940;12.050;2023-05-10T12:27:32;0.35;;;0.30;;
75007;SDS011;63554;48.940;12.050;2023-05-10T12:31:48;1.83;;;0.43;;
75007;SDS011;63554;48.940;12.050;2023-05-10T12:35:52;1.50;;;0.40;;
75007;SDS011;63554;48.940;12.050;2023-05-10T12:39:57;0.60;;;0.40;;
75007;SDS011;63554;48.940;12.050;2023-05-10T12:44:01;0.50;;;0.30;;
75007;SDS011;63554;48.940;12.050;2023-05-10T12:48:04;1.33;;;0.28;;
75007;SDS011;63554;48.940;12.050;2023-05-10T12:52:08;0.32;;;0.30;;
75007;SDS011;63554;48.940;12.050;2023-05-10T12:56:10;0.60;;;0.30;;
75007;SDS011;63554;48.940;12.050;2023-05-10T13:00:15;0.55;;;0.50;;
75007;SDS011;63554;48.940;12.050;2023-05-10T13:08:21;1.42;;;0.50;;
75007;SDS011;63554;48.940;12.050;2023-05-10T13:12:24;0.88;;;0.38;;
75007;SDS011;63554;48.940;12.050;2023-05-10T13:16:28;3.40;;;0.60;;
75007;SDS011;63554;48.940;12.050;2023-05-10T13:20:31;1.33;;;0.60;;
75007;SDS011;63554;48.940;12.050;2023-05-10T13:24:33;1.40;;;0.45;;
75007;SDS011;63554;48.940;12.050;2023-05-10T13:28:36;2.05;;;0.55;;
75007;SDS011;63554;48.940;12.050;2023-05-10T13:32:41;1.30;;;0.50;;
75007;SDS011;63554;48.940;12.050;2023-05-10T13:36:44;0.45;;;0.40;;
75007;SDS011;63554;48.940;12.050;2023-05-10T13:40:46;1.17;;;0.73;;
75007;SDS011;63554;48.940;12.050;2023-05-10T13:44:49;2.47;;;0.70;;
75007;SDS011;63554;48.940;12.050;2023-05-10T13:48:53;5.65;;;2.80;;
75007;SDS011;63554;48.940;12.050;2023-05-10T13:52:56;2.25;;;1.20;;
75007;SDS011;63554;48.940;12.050;2023-05-10T13:56:59;1.50;;;0.73;;
75007;SDS011;63554;48.940;12.050;2023-05-10T14:01:03;0.65;;;0.60;;
75007;SDS011;63554;48.940;12.050;2023-05-10T14:05:07;1.23;;;0.80;;
75007;SDS011;63554;48.940;12.050;2023-05-10T14:09:10;2.25;;;0.57;;
75007;SDS011;63554;48.940;12.050;2023-05-10T14:13:13;1.30;;;0.60;;
75007;SDS011;63554;48.940;12.050;2023-05-10T14:17:16;0.30;;;0.30;;
75007;SDS011;63554;48.940;12.050;2023-05-10T14:21:20;0.75;;;0.52;;
75007;SDS011;63554;48.940;12.050;2023-05-10T14:25:23;1.65;;;1.20;;
75007;SDS011;63554;48.940;12.050;2023-05-10T14:29:26;0.60;;;0.45;;
75007;SDS011;63554;48.940;12.050;2023-05-10T14:33:28;0.98;;;0.60;;
75007;SDS011;63554;48.940;12.050;2023-05-10T14:37:32;1.25;;;0.85;;
75007;SDS011;63554;48.940;12.050;2023-05-10T14:41:35;1.10;;;0.60;;
75007;SDS011;63554;48.940;12.050;2023-05-10T14:45:38;1.30;;;0.75;;
75007;SDS011;63554;48.940;12.050;2023-05-10T14:49:41;0.73;;;0.50;;
75007;SDS011;63554;48.940;12.050;2023-05-10T14:53:45;0.70;;;0.45;;
75007;SDS011;63554;48.940;12.050;2023-05-10T14:57:47;1.00;;;0.75;;
75007;SDS011;63554;48.940;12.050;2023-05-10T15:01:51;1.45;;;0.68;;
75007;SDS011;63554;48.940;12.050;2023-05-10T15:05:54;0.80;;;0.70;;
75007;SDS011;63554;48.940;12.050;2023-05-10T15:10:00;1.17;;;0.88;;
75007;SDS011;63554;48.940;12.050;2023-05-10T15:14:03;1.55;;;0.80;;
75007;SDS011;63554;48.940;12.050;2023-05-10T15:18:06;1.58;;;0.80;;
75007;SDS011;63554;48.940;12.050;2023-05-10T15:22:08;1.23;;;0.70;;
75007;SDS011;63554;48.940;12.050;2023-05-10T15:26:12;1.60;;;0.80;;
75007;SDS011;63554;48.940;12.050;2023-05-10T15:30:15;1.77;;;0.70;;
75007;SDS011;63554;48.940;12.050;2023-05-10T15:34:18;1.02;;;0.70;;
75007;SDS011;63554;48.940;12.050;2023-05-10T15:38:21;1.85;;;0.80;;
75007;SDS011;63554;48.940;12.050;2023-05-10T15:42:25;1.95;;;1.15;;
75007;SDS011;63554;48.940;12.050;2023-05-10T15:46:28;3.90;;;0.88;;
75007;SDS011;63554;48.940;12.050;2023-05-10T15:50:31;2.00;;;1.23;;
75007;SDS011;63554;48.940;12.050;2023-05-10T15:54:33;3.17;;;0.90;;
75007;SDS011;63554;48.940;12.050;2023-05-10T15:58:38;1.40;;;0.98;;
75007;SDS011;63554;48.940;12.050;2023-05-10T16:02:41;2.67;;;1.10;;
75007;SDS011;63554;48.940;12.050;2023-05-10T16:06:44;1.30;;;1.02;;
75007;SDS011;63554;48.940;12.050;2023-05-10T16:10:47;1.33;;;0.80;;
75007;SDS011;63554;48.940;12.050;2023-05-10T16:14:51;3.42;;;0.90;;
75007;SDS011;63554;48.940;12.050;2023-05-10T16:18:54;1.33;;;0.82;;
75007;SDS011;63554;48.940;12.050;2023-05-10T16:22:58;1.38;;;0.90;;
75007;SDS011;63554;48.940;12.050;2023-05-10T16:27:04;2.35;;;1.00;;
75007;SDS011;63554;48.940;12.050;2023-05-10T16:31:08;1.27;;;0.82;;
75007;SDS011;63554;48.940;12.050;2023-05-10T16:35:11;2.30;;;0.63;;
75007;SDS011;63554;48.940;12.050;2023-05-10T16:39:13;2.28;;;0.85;;
75007;SDS011;63554;48.940;12.050;2023-05-10T16:43:16;1.05;;;0.85;;
75007;SDS011;63554;48.940;12.050;2023-05-10T16:47:20;1.58;;;1.48;;
75007;SDS011;63554;48.940;12.050;2023-05-10T16:51:26;1.67;;;0.95;;
75007;SDS011;63554;48.940;12.050;2023-05-10T16:55:29;2.13;;;1.05;;
75007;SDS011;63554;48.940;12.050;2023-05-10T16:59:32;3.83;;;1.95;;
75007;SDS011;63554;48.940;12.050;2023-05-10T17:03:36;2.30;;;1.30;;
75007;SDS011;63554;48.940;12.050;2023-05-10T17:07:38;2.78;;;1.00;;
75007;SDS011;63554;48.940;12.050;2023-05-10T17:11:41;2.53;;;1.20;;
75007;SDS011;63554;48.940;12.050;2023-05-10T17:15:44;1.55;;;1.23;;
75007;SDS011;63554;48.940;12.050;2023-05-10T17:19:49;1.58;;;0.75;;
75007;SDS011;63554;48.940;12.050;2023-05-10T17:23:52;1.33;;;0.95;;
75007;SDS011;63554;48.940;12.050;2023-05-10T17:27:54;2.20;;;1.02;;
75007;SDS011;63554;48.940;12.050;2023-05-10T17:31:57;1.55;;;1.00;;
75007;SDS011;63554;48.940;12.050;2023-05-10T17:36:01;1.10;;;0.68;;
75007;SDS011;63554;48.940;12.050;2023-05-10T17:40:04;2.70;;;0.98;;
75007;SDS011;63554;48.940;12.050;2023-05-10T17:48:13;1.95;;;1.27;;
75007;SDS011;63554;48.940;12.050;2023-05-10T17:52:17;2.78;;;1.98;;
75007;SDS011;63554;48.940;12.050;2023-05-10T17:56:20;3.17;;;1.80;;
75007;SDS011;63554;48.940;12.050;2023-05-10T18:00:23;2.17;;;1.50;;
75007;SDS011;63554;48.940;12.050;2023-05-10T18:04:26;4.03;;;2.30;;
75007;SDS011;63554;48.940;12.050;2023-05-10T18:08:30;1.98;;;1.13;;
75007;SDS011;63554;48.940;12.050;2023-05-10T18:12:33;2.70;;;1.75;;
75007;SDS011;63554;48.940;12.050;2023-05-10T18:16:36;2.47;;;1.75;;
75007;SDS011;63554;48.940;12.050;2023-05-10T18:20:38;2.85;;;1.80;;
75007;SDS011;63554;48.940;12.050;2023-05-10T18:24:43;2.67;;;1.77;;
75007;SDS011;63554;48.940;12.050;2023-05-10T18:28:47;2.47;;;1.35;;
75007;SDS011;63554;48.940;12.050;2023-05-10T18:32:49;2.60;;;1.70;;
75007;SDS011;63554;48.940;12.050;2023-05-10T18:36:52;2.88;;;2.08;;
75007;SDS011;63554;48.940;12.050;2023-05-10T18:40:56;1.80;;;1.10;;
75007;SDS011;63554;48.940;12.050;2023-05-10T18:44:59;1.73;;;1.02;;
75007;SDS011;63554;48.940;12.050;2023-05-10T18:49:02;2.60;;;1.20;;
75007;SDS011;63554;48.940;12.050;2023-05-10T18:53:06;2.45;;;1.33;;
75007;SDS011;63554;48.940;12.050;2023-05-10T18:57:11;1.20;;;1.05;;
75007;SDS011;63554;48.940;12.050;2023-05-10T19:01:14;1.25;;;0.82;;
75007;SDS011;63554;48.940;12.050;2023-05-10T19:05:18;2.33;;;0.80;;
75007;SDS011;63554;48.940;12.050;2023-05-10T19:09:21;1.42;;;1.23;;
75007;SDS011;63554;48.940;12.050;2023-05-10T19:13:25;3.65;;;1.05;;
75007;SDS011;63554;48.940;12.050;2023-05-10T19:17:29;1.48;;;1.00;;
75007;SDS011;63554;48.940;12.050;2023-05-10T19:21:31;4.35;;;1.05;;
75007;SDS011;63554;48.940;12.050;2023-05-10T19:25:34;3.38;;;1.73;;
75007;SDS011;63554;48.940;12.050;2023-05-10T19:29:40;1.92;;;1.50;;
75007;SDS011;63554;48.940;12.050;2023-05-10T19:33:42;1.77;;;1.00;;
75007;SDS011;63554;48.940;12.050;2023-05-10T19:37:45;2.75;;;1.30;;
75007;SDS011;63554;48.940;12.050;2023-05-10T19:41:49;1.20;;;0.85;;
75007;SDS011;63554;48.940;12.050;2023-05-10T19:45:53;1.55;;;1.15;;
75007;SDS011;63554;48.940;12.050;2023-05-10T19:49:56;2.65;;;0.90;;
75007;SDS011;63554;48.940;12.050;2023-05-10T19:53:59;1.60;;;1.00;;
75007;SDS011;63554;48.940;12.050;2023-05-10T19:58:02;0.98;;;0.88;;
75007;SDS011;63554;48.940;12.050;2023-05-10T20:02:07;1.92;;;0.85;;
75007;SDS011;63554;48.940;12.050;2023-05-10T20:06:09;1.45;;;0.73;;
75007;SDS011;63554;48.940;12.050;2023-05-10T20:10:12;1.30;;;1.08;;
75007;SDS011;63554;48.940;12.050;2023-05-10T20:14:16;1.90;;;1.40;;
75007;SDS011;63554;48.940;12.050;2023-05-10T20:18:21;0.57;;;0.57;;
75007;SDS011;63554;48.940;12.050;2023-05-10T20:22:23;1.58;;;1.20;;
75007;SDS011;63554;48.940;12.050;2023-05-10T20:26:27;1.35;;;0.82;;
75007;SDS011;63554;48.940;12.050;2023-05-10T20:30:29;1.50;;;1.13;;
75007;SDS011;63554;48.940;12.050;2023-05-10T20:34:34;1.25;;;0.90;;
75007;SDS011;63554;48.940;12.050;2023-05-10T20:38:36;2.72;;;1.02;;
75007;SDS011;63554;48.940;12.050;2023-05-10T20:42:39;1.50;;;0.93;;
75007;SDS011;63554;48.940;12.050;2023-05-10T20:46:42;1.42;;;1.00;;
75007;SDS011;63554;48.940;12.050;2023-05-10T20:50:47;1.52;;;1.10;;
75007;SDS011;63554;48.940;12.050;2023-05-10T20:54:50;1.05;;;0.90;;
75007;SDS011;63554;48.940;12.050;2023-05-10T20:58:52;2.55;;;1.15;;
75007;SDS011;63554;48.940;12.050;2023-05-10T21:02:55;1.92;;;1.02;;
75007;SDS011;63554;48.940;12.050;2023-05-10T21:07:00;1.45;;;0.95;;
75007;SDS011;63554;48.940;12.050;2023-05-10T21:11:02;1.58;;;0.93;;
75007;SDS011;63554;48.940;12.050;2023-05-10T21:15:06;3.22;;;1.42;;
75007;SDS011;63554;48.940;12.050;2023-05-10T21:19:10;2.55;;;1.02;;
75007;SDS011;63554;48.940;12.050;2023-05-10T21:23:14;1.23;;;1.13;;
75007;SDS011;63554;48.940;12.050;2023-05-10T21:27:16;1.33;;;1.13;;
75007;SDS011;63554;48.940;12.050;2023-05-10T21:31:19;2.72;;;1.30;;
75007;SDS011;63554;48.940;12.050;2023-05-10T21:35:22;2.80;;;1.23;;
75007;SDS011;63554;48.940;12.050;2023-05-10T21:39:26;1.90;;;1.50;;
75007;SDS011;63554;48.940;12.050;2023-05-10T21:43:29;1.58;;;1.35;;
75007;SDS011;63554;48.940;12.050;2023-05-10T21:47:32;1.77;;;1.23;;
75007;SDS011;63554;48.940;12.050;2023-05-10T21:51:35;2.78;;;1.25;;
75007;SDS011;63554;48.940;12.050;2023-05-10T21:55:39;1.58;;;1.23;;
75007;SDS011;63554;48.940;12.050;2023-05-10T21:59:42;1.65;;;1.20;;
75007;SDS011;63554;48.940;12.050;2023-05-10T22:03:44;1.85;;;1.25;;
75007;SDS011;63554;48.940;12.050;2023-05-10T22:07:47;2.30;;;1.55;;
75007;SDS011;63554;48.940;12.050;2023-05-10T22:11:51;3.20;;;1.23;;
75007;SDS011;63554;48.940;12.050;2023-05-10T22:15:54;2.10;;;1.90;;
75007;SDS011;63554;48.940;12.050;2023-05-10T22:19:57;3.13;;;1.33;;
75007;SDS011;63554;48.940;12.050;2023-05-10T22:23:59;1.92;;;1.20;;
75007;SDS011;63554;48.940;12.050;2023-05-10T22:28:03;3.22;;;1.45;;
75007;SDS011;63554;48.940;12.050;2023-05-10T22:32:07;2.47;;;1.13;;
75007;SDS011;63554;48.940;12.050;2023-05-10T22:36:10;1.42;;;1.10;;
75007;SDS011;63554;48.940;12.050;2023-05-10T22:40:12;1.38;;;0.93;;
75007;SDS011;63554;48.940;12.050;2023-05-10T22:44:17;3.30;;;1.27;;
75007;SDS011;63554;48.940;12.050;2023-05-10T22:48:19;1.80;;;1.40;;
75007;SDS011;63554;48.940;12.050;2023-05-10T22:52:22;1.77;;;1.10;;
75007;SDS011;63554;48.940;12.050;2023-05-10T22:56:25;6.20;;;1.88;;
75007;SDS011;63554;48.940;12.050;2023-05-10T23:00:30;1.98;;;1.33;;
75007;SDS011;63554;48.940;12.050;2023-05-10T23:04:32;2.33;;;1.60;;
75007;SDS011;63554;48.940;12.050;2023-05-10T23:08:35;4.00;;;1.65;;
75007;SDS011;63554;48.940;12.050;2023-05-10T23:12:38;1.48;;;1.27;;
75007;SDS011;63554;48.940;12.050;2023-05-10T23:16:42;2.65;;;1.42;;
75007;SDS011;63554;48.940;12.050;2023-05-10T23:20:45;2.50;;;1.05;;
75007;SDS011;63554;48.940;12.050;2023-05-10T23:24:47;6.30;;;1.38;;
75007;SDS011;63554;48.940;12.050;2023-05-10T23:28:50;1.15;;;1.05;;
75007;SDS011;63554;48.940;12.050;2023-05-10T23:32:54;1.40;;;1.10;;
75007;SDS011;63554;48.940;12.050;2023-05-10T23:36:57;4.85;;;1.42;;
75007;SDS011;63554;48.940;12.050;2023-05-10T23:40:59;2.92;;;1.67;;
75007;SDS011;63554;48.940;12.050;2023-05-10T23:45:02;4.20;;;1.88;;
75007;SDS011;63554;48.940;12.050;2023-05-10T23:49:07;2.60;;;1.50;;
75007;SDS011;63554;48.940;12.050;2023-05-10T23:53:09;2.45;;;1.90;;
75007;SDS011;63554;48.940;12.050;2023-05-10T23:57:12;2.75;;;1.95;;
